sensor_id;sensor_type;location;lat;lon;timestamp;P1;durP1;ratioP1;P2;durP2;ratioP2
10517;SDS011;5307;42.548;22.968;2022-12-18T00:00:08;5.85;;;4.68;;
10517;SDS011;5307;42.548;22.968;2022-12-18T00:02:36;6.72;;;4.65;;
10517;SDS011;5307;42.548;22.968;2022-12-18T00:05:03;4.93;;;4.13;;
10517;SDS011;5307;42.548;22.968;2022-12-18T00:07:30;7.15;;;4.82;;
10517;SDS011;5307;42.548;22.968;2022-12-18T00:09:57;5.70;;;4.50;;
10517;SDS011;5307;42.548;22.968;2022-12-18T00:12:23;6.75;;;4.82;;
10517;SDS011;5307;42.548;22.968;2022-12-18T00:14:50;7.13;;;4.95;;
10517;SDS011;5307;42.548;22.968;2022-12-18T00:17:18;8.77;;;5.85;;
10517;SDS011;5307;42.548;22.968;2022-12-18T00:19:45;10.00;;;5.95;;
10517;SDS011;5307;42.548;22.968;2022-12-18T00:22:12;7.85;;;5.60;;
10517;SDS011;5307;42.548;22.968;2022-12-18T00:24:38;7.70;;;5.60;;
10517;SDS011;5307;42.548;22.968;2022-12-18T00:27:05;10.50;;;5.97;;
10517;SDS011;5307;42.548;22.968;2022-12-18T00:29:32;10.35;;;6.38;;
10517;SDS011;5307;42.548;22.968;2022-12-18T00:31:59;8.45;;;5.30;;
10517;SDS011;5307;42.548;22.968;2022-12-18T00:34:27;10.48;;;5.97;;
10517;SDS011;5307;42.548;22.968;2022-12-18T00:36:54;7.68;;;5.38;;
10517;SDS011;5307;42.548;22.968;2022-12-18T00:39:20;8.75;;;5.90;;
10517;SDS011;5307;42.548;22.968;2022-12-18T00:41:47;9.55;;;5.35;;
10517;SDS011;5307;42.548;22.968;2022-12-18T00:44:31;8.90;;;5.75;;
10517;SDS011;5307;42.548;22.968;2022-12-18T00:46:58;7.32;;;4.78;;
10517;SDS011;5307;42.548;22.968;2022-12-18T00:49:26;7.22;;;5.20;;
10517;SDS011;5307;42.548;22.968;2022-12-18T00:51:53;8.50;;;5.43;;
10517;SDS011;5307;42.548;22.968;2022-12-18T00:54:20;8.75;;;5.40;;
10517;SDS011;5307;42.548;22.968;2022-12-18T00:56:46;9.70;;;5.47;;
10517;SDS011;5307;42.548;22.968;2022-12-18T00:59:13;6.28;;;4.88;;
10517;SDS011;5307;42.548;22.968;2022-12-18T01:01:40;8.85;;;5.38;;
10517;SDS011;5307;42.548;22.968;2022-12-18T01:04:07;11.55;;;6.60;;
10517;SDS011;5307;42.548;22.968;2022-12-18T01:06:35;6.00;;;4.85;;
10517;SDS011;5307;42.548;22.968;2022-12-18T01:09:02;8.52;;;5.85;;
10517;SDS011;5307;42.548;22.968;2022-12-18T01:11:30;9.73;;;6.13;;
10517;SDS011;5307;42.548;22.968;2022-12-18T01:13:57;9.75;;;5.63;;
10517;SDS011;5307;42.548;22.968;2022-12-18T01:16:25;8.48;;;5.72;;
10517;SDS011;5307;42.548;22.968;2022-12-18T01:18:52;5.85;;;4.20;;
10517;SDS011;5307;42.548;22.968;2022-12-18T01:21:20;7.95;;;5.32;;
10517;SDS011;5307;42.548;22.968;2022-12-18T01:23:51;9.15;;;6.15;;
10517;SDS011;5307;42.548;22.968;2022-12-18T01:26:19;15.32;;;7.28;;
10517;SDS011;5307;42.548;22.968;2022-12-18T01:28:46;12.50;;;6.85;;
10517;SDS011;5307;42.548;22.968;2022-12-18T01:31:15;10.70;;;6.38;;
10517;SDS011;5307;42.548;22.968;2022-12-18T01:33:43;13.50;;;7.57;;
10517;SDS011;5307;42.548;22.968;2022-12-18T01:36:17;9.40;;;6.10;;
10517;SDS011;5307;42.548;22.968;2022-12-18T01:38:46;12.07;;;6.85;;
10517;SDS011;5307;42.548;22.968;2022-12-18T01:41:15;14.55;;;8.02;;
10517;SDS011;5307;42.548;22.968;2022-12-18T01:43:45;13.10;;;7.05;;
10517;SDS011;5307;42.548;22.968;2022-12-18T01:46:16;10.73;;;7.15;;
10517;SDS011;5307;42.548;22.968;2022-12-18T01:48:44;11.27;;;6.85;;
10517;SDS011;5307;42.548;22.968;2022-12-18T01:51:13;11.75;;;7.28;;
10517;SDS011;5307;42.548;22.968;2022-12-18T01:53:41;16.15;;;9.20;;
10517;SDS011;5307;42.548;22.968;2022-12-18T01:56:12;9.95;;;6.32;;
10517;SDS011;5307;42.548;22.968;2022-12-18T01:58:45;19.17;;;9.80;;
10517;SDS011;5307;42.548;22.968;2022-12-18T02:01:17;7.63;;;4.95;;
10517;SDS011;5307;42.548;22.968;2022-12-18T02:03:44;9.98;;;4.97;;
10517;SDS011;5307;42.548;22.968;2022-12-18T02:06:13;8.25;;;5.10;;
10517;SDS011;5307;42.548;22.968;2022-12-18T02:08:45;8.80;;;5.13;;
10517;SDS011;5307;42.548;22.968;2022-12-18T02:11:23;8.10;;;5.57;;
10517;SDS011;5307;42.548;22.968;2022-12-18T02:14:01;7.03;;;4.97;;
10517;SDS011;5307;42.548;22.968;2022-12-18T02:16:34;9.73;;;5.20;;
10517;SDS011;5307;42.548;22.968;2022-12-18T02:19:08;7.78;;;5.07;;
10517;SDS011;5307;42.548;22.968;2022-12-18T02:21:48;6.88;;;5.35;;
10517;SDS011;5307;42.548;22.968;2022-12-18T02:24:26;6.88;;;5.20;;
10517;SDS011;5307;42.548;22.968;2022-12-18T02:27:01;7.72;;;5.50;;
10517;SDS011;5307;42.548;22.968;2022-12-18T02:29:32;6.18;;;4.50;;
10517;SDS011;5307;42.548;22.968;2022-12-18T02:32:05;5.95;;;4.53;;
10517;SDS011;5307;42.548;22.968;2022-12-18T02:34:36;8.68;;;4.57;;
10517;SDS011;5307;42.548;22.968;2022-12-18T02:37:06;5.63;;;3.92;;
10517;SDS011;5307;42.548;22.968;2022-12-18T02:39:39;5.22;;;3.50;;
10517;SDS011;5307;42.548;22.968;2022-12-18T02:42:09;4.88;;;3.83;;
10517;SDS011;5307;42.548;22.968;2022-12-18T02:44:41;5.18;;;3.92;;
10517;SDS011;5307;42.548;22.968;2022-12-18T02:47:10;5.28;;;4.13;;
10517;SDS011;5307;42.548;22.968;2022-12-18T02:49:40;6.93;;;5.00;;
10517;SDS011;5307;42.548;22.968;2022-12-18T02:52:17;6.70;;;3.65;;
10517;SDS011;5307;42.548;22.968;2022-12-18T02:54:55;5.03;;;3.75;;
10517;SDS011;5307;42.548;22.968;2022-12-18T02:57:35;6.63;;;4.25;;
10517;SDS011;5307;42.548;22.968;2022-12-18T03:00:08;4.25;;;3.40;;
10517;SDS011;5307;42.548;22.968;2022-12-18T03:02:39;4.82;;;3.92;;
10517;SDS011;5307;42.548;22.968;2022-12-18T03:05:13;5.82;;;3.67;;
10517;SDS011;5307;42.548;22.968;2022-12-18T03:07:45;5.32;;;3.53;;
10517;SDS011;5307;42.548;22.968;2022-12-18T03:10:18;6.80;;;4.03;;
10517;SDS011;5307;42.548;22.968;2022-12-18T03:12:52;4.75;;;3.70;;
10517;SDS011;5307;42.548;22.968;2022-12-18T03:15:23;6.70;;;4.47;;
10517;SDS011;5307;42.548;22.968;2022-12-18T03:17:55;6.03;;;4.20;;
10517;SDS011;5307;42.548;22.968;2022-12-18T03:20:26;6.53;;;4.35;;
10517;SDS011;5307;42.548;22.968;2022-12-18T03:22:57;4.43;;;3.45;;
10517;SDS011;5307;42.548;22.968;2022-12-18T03:25:28;6.55;;;3.88;;
10517;SDS011;5307;42.548;22.968;2022-12-18T03:27:59;5.43;;;3.55;;
10517;SDS011;5307;42.548;22.968;2022-12-18T03:30:30;6.07;;;3.92;;
10517;SDS011;5307;42.548;22.968;2022-12-18T03:33:02;5.30;;;3.80;;
10517;SDS011;5307;42.548;22.968;2022-12-18T03:35:35;4.63;;;3.80;;
10517;SDS011;5307;42.548;22.968;2022-12-18T03:38:05;8.55;;;4.53;;
10517;SDS011;5307;42.548;22.968;2022-12-18T03:40:35;5.47;;;3.97;;
10517;SDS011;5307;42.548;22.968;2022-12-18T03:43:10;4.70;;;3.60;;
10517;SDS011;5307;42.548;22.968;2022-12-18T03:45:47;5.00;;;3.35;;
10517;SDS011;5307;42.548;22.968;2022-12-18T03:48:19;3.80;;;3.05;;
10517;SDS011;5307;42.548;22.968;2022-12-18T03:50:53;6.47;;;4.07;;
10517;SDS011;5307;42.548;22.968;2022-12-18T03:53:27;5.07;;;3.90;;
10517;SDS011;5307;42.548;22.968;2022-12-18T03:55:59;5.18;;;3.78;;
10517;SDS011;5307;42.548;22.968;2022-12-18T03:58:29;5.55;;;3.97;;
10517;SDS011;5307;42.548;22.968;2022-12-18T04:01:00;6.03;;;4.28;;
10517;SDS011;5307;42.548;22.968;2022-12-18T04:03:30;7.82;;;4.60;;
10517;SDS011;5307;42.548;22.968;2022-12-18T04:06:00;6.13;;;4.22;;
10517;SDS011;5307;42.548;22.968;2022-12-18T04:08:28;7.55;;;4.40;;
10517;SDS011;5307;42.548;22.968;2022-12-18T04:10:55;8.15;;;4.95;;
10517;SDS011;5307;42.548;22.968;2022-12-18T04:13:22;6.32;;;4.75;;
10517;SDS011;5307;42.548;22.968;2022-12-18T04:15:51;10.57;;;6.22;;
10517;SDS011;5307;42.548;22.968;2022-12-18T04:18:18;7.28;;;4.07;;
10517;SDS011;5307;42.548;22.968;2022-12-18T04:20:45;11.60;;;5.50;;
10517;SDS011;5307;42.548;22.968;2022-12-18T04:23:12;8.65;;;5.30;;
10517;SDS011;5307;42.548;22.968;2022-12-18T04:25:39;7.65;;;5.60;;
10517;SDS011;5307;42.548;22.968;2022-12-18T04:28:05;9.15;;;5.95;;
10517;SDS011;5307;42.548;22.968;2022-12-18T04:30:32;8.10;;;5.28;;
10517;SDS011;5307;42.548;22.968;2022-12-18T04:33:01;12.93;;;4.95;;
10517;SDS011;5307;42.548;22.968;2022-12-18T04:35:27;7.38;;;4.82;;
10517;SDS011;5307;42.548;22.968;2022-12-18T04:37:56;4.82;;;3.35;;
10517;SDS011;5307;42.548;22.968;2022-12-18T04:40:23;8.23;;;5.45;;
10517;SDS011;5307;42.548;22.968;2022-12-18T04:42:50;5.13;;;2.78;;
10517;SDS011;5307;42.548;22.968;2022-12-18T04:45:17;8.25;;;5.32;;
10517;SDS011;5307;42.548;22.968;2022-12-18T04:47:44;6.35;;;4.97;;
10517;SDS011;5307;42.548;22.968;2022-12-18T04:50:12;6.72;;;4.75;;
10517;SDS011;5307;42.548;22.968;2022-12-18T04:52:39;6.13;;;4.00;;
10517;SDS011;5307;42.548;22.968;2022-12-18T04:55:05;8.65;;;4.97;;
10517;SDS011;5307;42.548;22.968;2022-12-18T04:57:35;6.25;;;5.00;;
10517;SDS011;5307;42.548;22.968;2022-12-18T05:00:02;7.50;;;4.88;;
10517;SDS011;5307;42.548;22.968;2022-12-18T05:02:31;7.53;;;4.90;;
10517;SDS011;5307;42.548;22.968;2022-12-18T05:04:57;6.88;;;5.05;;
10517;SDS011;5307;42.548;22.968;2022-12-18T05:07:25;8.57;;;5.65;;
10517;SDS011;5307;42.548;22.968;2022-12-18T05:09:52;9.02;;;5.70;;
10517;SDS011;5307;42.548;22.968;2022-12-18T05:12:19;7.40;;;4.82;;
10517;SDS011;5307;42.548;22.968;2022-12-18T05:14:46;7.22;;;4.82;;
10517;SDS011;5307;42.548;22.968;2022-12-18T05:17:13;6.60;;;5.10;;
10517;SDS011;5307;42.548;22.968;2022-12-18T05:19:39;6.95;;;4.80;;
10517;SDS011;5307;42.548;22.968;2022-12-18T05:22:06;11.35;;;6.50;;
10517;SDS011;5307;42.548;22.968;2022-12-18T05:24:34;13.57;;;7.85;;
10517;SDS011;5307;42.548;22.968;2022-12-18T05:27:01;15.05;;;8.75;;
10517;SDS011;5307;42.548;22.968;2022-12-18T05:29:28;11.50;;;6.72;;
10517;SDS011;5307;42.548;22.968;2022-12-18T05:31:55;7.68;;;4.93;;
10517;SDS011;5307;42.548;22.968;2022-12-18T05:34:22;7.60;;;4.88;;
10517;SDS011;5307;42.548;22.968;2022-12-18T05:36:49;9.05;;;5.63;;
10517;SDS011;5307;42.548;22.968;2022-12-18T05:39:15;7.70;;;5.60;;
10517;SDS011;5307;42.548;22.968;2022-12-18T05:41:43;9.93;;;6.32;;
10517;SDS011;5307;42.548;22.968;2022-12-18T05:44:10;7.53;;;5.25;;
10517;SDS011;5307;42.548;22.968;2022-12-18T05:46:37;9.48;;;5.53;;
10517;SDS011;5307;42.548;22.968;2022-12-18T05:49:04;10.55;;;6.75;;
10517;SDS011;5307;42.548;22.968;2022-12-18T05:51:31;14.40;;;8.18;;
10517;SDS011;5307;42.548;22.968;2022-12-18T05:53:58;12.35;;;7.43;;
10517;SDS011;5307;42.548;22.968;2022-12-18T05:56:24;13.48;;;7.82;;
10517;SDS011;5307;42.548;22.968;2022-12-18T05:58:53;10.50;;;6.63;;
10517;SDS011;5307;42.548;22.968;2022-12-18T06:01:21;13.38;;;8.63;;
10517;SDS011;5307;42.548;22.968;2022-12-18T06:03:50;25.45;;;13.30;;
10517;SDS011;5307;42.548;22.968;2022-12-18T06:06:17;9.40;;;5.30;;
10517;SDS011;5307;42.548;22.968;2022-12-18T06:08:46;13.38;;;8.82;;
10517;SDS011;5307;42.548;22.968;2022-12-18T06:11:15;11.73;;;9.05;;
10517;SDS011;5307;42.548;22.968;2022-12-18T06:13:43;27.45;;;12.27;;
10517;SDS011;5307;42.548;22.968;2022-12-18T06:16:11;27.77;;;12.00;;
10517;SDS011;5307;42.548;22.968;2022-12-18T06:18:38;21.88;;;10.48;;
10517;SDS011;5307;42.548;22.968;2022-12-18T06:21:05;25.08;;;11.80;;
10517;SDS011;5307;42.548;22.968;2022-12-18T06:23:32;19.42;;;11.07;;
10517;SDS011;5307;42.548;22.968;2022-12-18T06:25:58;31.58;;;13.00;;
10517;SDS011;5307;42.548;22.968;2022-12-18T06:28:30;22.30;;;11.45;;
10517;SDS011;5307;42.548;22.968;2022-12-18T06:30:57;17.70;;;10.63;;
10517;SDS011;5307;42.548;22.968;2022-12-18T06:33:26;18.15;;;9.27;;
10517;SDS011;5307;42.548;22.968;2022-12-18T06:35:54;15.77;;;9.68;;
10517;SDS011;5307;42.548;22.968;2022-12-18T06:38:25;16.33;;;8.68;;
10517;SDS011;5307;42.548;22.968;2022-12-18T06:40:52;13.13;;;8.52;;
10517;SDS011;5307;42.548;22.968;2022-12-18T06:43:19;16.70;;;8.82;;
10517;SDS011;5307;42.548;22.968;2022-12-18T06:45:46;14.00;;;8.68;;
10517;SDS011;5307;42.548;22.968;2022-12-18T06:48:17;12.13;;;7.25;;
10517;SDS011;5307;42.548;22.968;2022-12-18T06:50:45;11.45;;;6.05;;
10517;SDS011;5307;42.548;22.968;2022-12-18T06:53:13;14.98;;;7.60;;
10517;SDS011;5307;42.548;22.968;2022-12-18T06:55:39;19.70;;;10.35;;
10517;SDS011;5307;42.548;22.968;2022-12-18T06:58:06;21.50;;;10.25;;
10517;SDS011;5307;42.548;22.968;2022-12-18T07:00:33;16.45;;;8.95;;
10517;SDS011;5307;42.548;22.968;2022-12-18T07:03:00;12.88;;;7.45;;
10517;SDS011;5307;42.548;22.968;2022-12-18T07:05:27;15.00;;;8.80;;
10517;SDS011;5307;42.548;22.968;2022-12-18T07:07:55;18.85;;;10.30;;
10517;SDS011;5307;42.548;22.968;2022-12-18T07:10:22;20.42;;;10.98;;
10517;SDS011;5307;42.548;22.968;2022-12-18T07:12:49;22.08;;;10.73;;
10517;SDS011;5307;42.548;22.968;2022-12-18T07:15:16;14.88;;;7.65;;
10517;SDS011;5307;42.548;22.968;2022-12-18T07:17:42;21.85;;;11.27;;
10517;SDS011;5307;42.548;22.968;2022-12-18T07:20:10;14.30;;;7.68;;
10517;SDS011;5307;42.548;22.968;2022-12-18T07:22:37;35.55;;;18.33;;
10517;SDS011;5307;42.548;22.968;2022-12-18T07:25:05;17.25;;;10.48;;
10517;SDS011;5307;42.548;22.968;2022-12-18T07:27:33;29.52;;;14.60;;
10517;SDS011;5307;42.548;22.968;2022-12-18T07:30:00;24.45;;;12.95;;
10517;SDS011;5307;42.548;22.968;2022-12-18T07:32:27;24.52;;;11.40;;
10517;SDS011;5307;42.548;22.968;2022-12-18T07:34:54;18.45;;;9.50;;
10517;SDS011;5307;42.548;22.968;2022-12-18T07:37:21;22.13;;;12.10;;
10517;SDS011;5307;42.548;22.968;2022-12-18T07:39:48;19.70;;;10.52;;
10517;SDS011;5307;42.548;22.968;2022-12-18T07:42:16;18.67;;;9.60;;
10517;SDS011;5307;42.548;22.968;2022-12-18T07:44:58;22.70;;;11.43;;
10517;SDS011;5307;42.548;22.968;2022-12-18T07:47:25;28.10;;;12.75;;
10517;SDS011;5307;42.548;22.968;2022-12-18T07:49:52;26.75;;;13.60;;
10517;SDS011;5307;42.548;22.968;2022-12-18T07:52:19;38.38;;;16.38;;
10517;SDS011;5307;42.548;22.968;2022-12-18T07:54:46;166.15;;;52.45;;
10517;SDS011;5307;42.548;22.968;2022-12-18T07:57:15;44.75;;;20.48;;
10517;SDS011;5307;42.548;22.968;2022-12-18T07:59:42;49.92;;;22.40;;
10517;SDS011;5307;42.548;22.968;2022-12-18T08:02:09;28.88;;;14.05;;
10517;SDS011;5307;42.548;22.968;2022-12-18T08:04:36;19.70;;;10.73;;
10517;SDS011;5307;42.548;22.968;2022-12-18T08:07:03;42.47;;;20.85;;
10517;SDS011;5307;42.548;22.968;2022-12-18T08:09:29;36.95;;;15.80;;
10517;SDS011;5307;42.548;22.968;2022-12-18T08:11:56;24.08;;;13.05;;
10517;SDS011;5307;42.548;22.968;2022-12-18T08:14:24;22.08;;;12.75;;
10517;SDS011;5307;42.548;22.968;2022-12-18T08:16:51;31.42;;;15.13;;
10517;SDS011;5307;42.548;22.968;2022-12-18T08:19:18;24.40;;;12.43;;
10517;SDS011;5307;42.548;22.968;2022-12-18T08:21:45;23.33;;;11.93;;
10517;SDS011;5307;42.548;22.968;2022-12-18T08:24:11;27.67;;;13.40;;
10517;SDS011;5307;42.548;22.968;2022-12-18T08:26:38;21.20;;;12.90;;
10517;SDS011;5307;42.548;22.968;2022-12-18T08:29:05;32.30;;;19.58;;
10517;SDS011;5307;42.548;22.968;2022-12-18T08:31:33;24.75;;;11.55;;
10517;SDS011;5307;42.548;22.968;2022-12-18T08:34:00;16.60;;;8.18;;
10517;SDS011;5307;42.548;22.968;2022-12-18T08:36:27;18.20;;;11.18;;
10517;SDS011;5307;42.548;22.968;2022-12-18T08:38:54;17.30;;;10.18;;
10517;SDS011;5307;42.548;22.968;2022-12-18T08:41:20;19.40;;;11.25;;
10517;SDS011;5307;42.548;22.968;2022-12-18T08:43:48;28.42;;;13.52;;
10517;SDS011;5307;42.548;22.968;2022-12-18T08:46:34;16.92;;;10.30;;
10517;SDS011;5307;42.548;22.968;2022-12-18T08:49:03;30.75;;;14.88;;
10517;SDS011;5307;42.548;22.968;2022-12-18T08:51:31;21.30;;;12.30;;
10517;SDS011;5307;42.548;22.968;2022-12-18T08:53:58;18.63;;;10.77;;
10517;SDS011;5307;42.548;22.968;2022-12-18T08:56:24;27.92;;;13.90;;
10517;SDS011;5307;42.548;22.968;2022-12-18T08:58:52;19.60;;;9.82;;
10517;SDS011;5307;42.548;22.968;2022-12-18T09:01:20;21.13;;;10.98;;
10517;SDS011;5307;42.548;22.968;2022-12-18T09:03:49;27.85;;;12.63;;
10517;SDS011;5307;42.548;22.968;2022-12-18T09:06:17;16.88;;;7.78;;
10517;SDS011;5307;42.548;22.968;2022-12-18T09:08:45;17.92;;;10.23;;
10517;SDS011;5307;42.548;22.968;2022-12-18T09:11:12;56.05;;;26.95;;
10517;SDS011;5307;42.548;22.968;2022-12-18T09:13:43;31.85;;;14.55;;
10517;SDS011;5307;42.548;22.968;2022-12-18T09:16:10;29.45;;;14.80;;
10517;SDS011;5307;42.548;22.968;2022-12-18T09:18:37;78.32;;;31.83;;
10517;SDS011;5307;42.548;22.968;2022-12-18T09:21:12;55.47;;;24.25;;
10517;SDS011;5307;42.548;22.968;2022-12-18T09:23:40;26.27;;;11.68;;
10517;SDS011;5307;42.548;22.968;2022-12-18T09:26:08;14.70;;;8.43;;
10517;SDS011;5307;42.548;22.968;2022-12-18T09:28:35;27.10;;;13.10;;
10517;SDS011;5307;42.548;22.968;2022-12-18T09:31:06;26.70;;;14.07;;
10517;SDS011;5307;42.548;22.968;2022-12-18T09:33:34;23.75;;;12.20;;
10517;SDS011;5307;42.548;22.968;2022-12-18T09:36:01;39.47;;;16.25;;
10517;SDS011;5307;42.548;22.968;2022-12-18T09:38:30;26.02;;;12.50;;
10517;SDS011;5307;42.548;22.968;2022-12-18T09:40:59;25.83;;;12.80;;
10517;SDS011;5307;42.548;22.968;2022-12-18T09:43:30;20.42;;;10.30;;
10517;SDS011;5307;42.548;22.968;2022-12-18T09:46:04;17.05;;;9.80;;
10517;SDS011;5307;42.548;22.968;2022-12-18T09:48:34;24.88;;;13.02;;
10517;SDS011;5307;42.548;22.968;2022-12-18T09:51:08;22.33;;;12.80;;
10517;SDS011;5307;42.548;22.968;2022-12-18T09:53:41;27.90;;;13.77;;
10517;SDS011;5307;42.548;22.968;2022-12-18T09:56:15;23.17;;;13.20;;
10517;SDS011;5307;42.548;22.968;2022-12-18T09:58:45;19.38;;;10.68;;
10517;SDS011;5307;42.548;22.968;2022-12-18T10:01:18;19.63;;;11.27;;
10517;SDS011;5307;42.548;22.968;2022-12-18T10:03:48;22.50;;;11.63;;
10517;SDS011;5307;42.548;22.968;2022-12-18T10:06:18;29.45;;;15.95;;
10517;SDS011;5307;42.548;22.968;2022-12-18T10:08:51;22.80;;;11.70;;
10517;SDS011;5307;42.548;22.968;2022-12-18T10:11:27;30.00;;;15.90;;
10517;SDS011;5307;42.548;22.968;2022-12-18T10:14:03;17.55;;;8.80;;
10517;SDS011;5307;42.548;22.968;2022-12-18T10:16:37;22.20;;;11.65;;
10517;SDS011;5307;42.548;22.968;2022-12-18T10:19:17;21.05;;;10.57;;
10517;SDS011;5307;42.548;22.968;2022-12-18T10:21:55;23.38;;;13.48;;
10517;SDS011;5307;42.548;22.968;2022-12-18T10:24:30;31.13;;;15.80;;
10517;SDS011;5307;42.548;22.968;2022-12-18T10:27:08;23.27;;;12.93;;
10517;SDS011;5307;42.548;22.968;2022-12-18T10:29:41;19.83;;;12.05;;
10517;SDS011;5307;42.548;22.968;2022-12-18T10:32:09;20.50;;;11.82;;
10517;SDS011;5307;42.548;22.968;2022-12-18T10:34:40;20.63;;;12.57;;
10517;SDS011;5307;42.548;22.968;2022-12-18T10:37:09;28.33;;;13.48;;
10517;SDS011;5307;42.548;22.968;2022-12-18T10:39:43;23.52;;;11.35;;
10517;SDS011;5307;42.548;22.968;2022-12-18T10:42:10;20.00;;;11.25;;
10517;SDS011;5307;42.548;22.968;2022-12-18T10:44:42;14.98;;;7.90;;
10517;SDS011;5307;42.548;22.968;2022-12-18T10:47:11;19.90;;;10.10;;
10517;SDS011;5307;42.548;22.968;2022-12-18T10:49:42;24.73;;;13.30;;
10517;SDS011;5307;42.548;22.968;2022-12-18T10:52:14;26.77;;;14.13;;
10517;SDS011;5307;42.548;22.968;2022-12-18T10:54:48;21.73;;;13.00;;
10517;SDS011;5307;42.548;22.968;2022-12-18T10:57:17;20.88;;;12.20;;
10517;SDS011;5307;42.548;22.968;2022-12-18T10:59:57;21.67;;;10.00;;
10517;SDS011;5307;42.548;22.968;2022-12-18T11:02:26;23.02;;;11.25;;
10517;SDS011;5307;42.548;22.968;2022-12-18T11:04:55;17.75;;;9.63;;
10517;SDS011;5307;42.548;22.968;2022-12-18T11:07:21;24.42;;;12.63;;
10517;SDS011;5307;42.548;22.968;2022-12-18T11:10:00;25.80;;;13.27;;
10517;SDS011;5307;42.548;22.968;2022-12-18T11:12:28;15.27;;;6.60;;
10517;SDS011;5307;42.548;22.968;2022-12-18T11:14:56;20.50;;;10.38;;
10517;SDS011;5307;42.548;22.968;2022-12-18T11:17:27;26.05;;;13.60;;
10517;SDS011;5307;42.548;22.968;2022-12-18T11:19:56;26.67;;;11.60;;
10517;SDS011;5307;42.548;22.968;2022-12-18T11:22:24;18.70;;;9.02;;
10517;SDS011;5307;42.548;22.968;2022-12-18T11:24:54;24.42;;;12.27;;
10517;SDS011;5307;42.548;22.968;2022-12-18T11:27:25;34.97;;;13.85;;
10517;SDS011;5307;42.548;22.968;2022-12-18T11:30:06;25.33;;;12.00;;
10517;SDS011;5307;42.548;22.968;2022-12-18T11:32:35;24.65;;;10.00;;
10517;SDS011;5307;42.548;22.968;2022-12-18T11:35:10;27.00;;;12.13;;
10517;SDS011;5307;42.548;22.968;2022-12-18T11:37:41;24.02;;;12.98;;
10517;SDS011;5307;42.548;22.968;2022-12-18T11:40:14;19.17;;;10.52;;
10517;SDS011;5307;42.548;22.968;2022-12-18T11:42:48;15.65;;;8.57;;
10517;SDS011;5307;42.548;22.968;2022-12-18T11:45:25;26.73;;;13.73;;
10517;SDS011;5307;42.548;22.968;2022-12-18T11:47:56;19.48;;;11.07;;
10517;SDS011;5307;42.548;22.968;2022-12-18T11:50:29;26.20;;;13.80;;
10517;SDS011;5307;42.548;22.968;2022-12-18T11:53:00;18.58;;;9.13;;
10517;SDS011;5307;42.548;22.968;2022-12-18T11:55:30;27.10;;;13.00;;
10517;SDS011;5307;42.548;22.968;2022-12-18T11:58:07;21.70;;;11.90;;
10517;SDS011;5307;42.548;22.968;2022-12-18T12:00:43;24.67;;;13.57;;
10517;SDS011;5307;42.548;22.968;2022-12-18T12:03:22;39.47;;;17.83;;
10517;SDS011;5307;42.548;22.968;2022-12-18T12:06:07;27.67;;;13.88;;
10517;SDS011;5307;42.548;22.968;2022-12-18T12:08:46;33.15;;;16.02;;
10517;SDS011;5307;42.548;22.968;2022-12-18T12:11:22;47.53;;;23.92;;
10517;SDS011;5307;42.548;22.968;2022-12-18T12:14:00;34.88;;;17.50;;
10517;SDS011;5307;42.548;22.968;2022-12-18T12:16:43;28.20;;;14.05;;
10517;SDS011;5307;42.548;22.968;2022-12-18T12:19:20;19.52;;;11.20;;
10517;SDS011;5307;42.548;22.968;2022-12-18T12:22:02;20.23;;;10.95;;
10517;SDS011;5307;42.548;22.968;2022-12-18T12:24:37;21.33;;;11.73;;
10517;SDS011;5307;42.548;22.968;2022-12-18T12:27:16;24.08;;;12.57;;
10517;SDS011;5307;42.548;22.968;2022-12-18T12:29:58;19.77;;;9.77;;
10517;SDS011;5307;42.548;22.968;2022-12-18T12:32:33;15.63;;;7.47;;
10517;SDS011;5307;42.548;22.968;2022-12-18T12:35:12;21.00;;;11.77;;
10517;SDS011;5307;42.548;22.968;2022-12-18T12:37:53;21.90;;;11.85;;
10517;SDS011;5307;42.548;22.968;2022-12-18T12:40:30;20.35;;;10.85;;
10517;SDS011;5307;42.548;22.968;2022-12-18T12:43:01;21.45;;;10.90;;
10517;SDS011;5307;42.548;22.968;2022-12-18T12:45:42;22.80;;;11.52;;
10517;SDS011;5307;42.548;22.968;2022-12-18T12:48:16;18.38;;;10.57;;
10517;SDS011;5307;42.548;22.968;2022-12-18T12:50:48;21.08;;;10.70;;
10517;SDS011;5307;42.548;22.968;2022-12-18T12:53:20;19.35;;;11.35;;
10517;SDS011;5307;42.548;22.968;2022-12-18T12:55:51;18.35;;;9.32;;
10517;SDS011;5307;42.548;22.968;2022-12-18T12:58:22;19.30;;;10.98;;
10517;SDS011;5307;42.548;22.968;2022-12-18T13:01:00;20.48;;;11.57;;
10517;SDS011;5307;42.548;22.968;2022-12-18T13:03:35;22.20;;;10.93;;
10517;SDS011;5307;42.548;22.968;2022-12-18T13:06:12;18.25;;;9.52;;
10517;SDS011;5307;42.548;22.968;2022-12-18T13:08:56;26.08;;;12.38;;
10517;SDS011;5307;42.548;22.968;2022-12-18T13:11:36;20.80;;;10.77;;
10517;SDS011;5307;42.548;22.968;2022-12-18T13:14:23;17.70;;;9.25;;
10517;SDS011;5307;42.548;22.968;2022-12-18T13:17:04;13.38;;;6.38;;
10517;SDS011;5307;42.548;22.968;2022-12-18T13:19:50;17.70;;;9.88;;
10517;SDS011;5307;42.548;22.968;2022-12-18T13:22:22;18.13;;;10.25;;
10517;SDS011;5307;42.548;22.968;2022-12-18T13:24:50;22.15;;;10.60;;
10517;SDS011;5307;42.548;22.968;2022-12-18T13:33:38;22.23;;;11.85;;
10517;SDS011;5307;42.548;22.968;2022-12-18T13:45:45;21.02;;;11.18;;
10517;SDS011;5307;42.548;22.968;2022-12-18T13:48:16;18.90;;;10.07;;
10517;SDS011;5307;42.548;22.968;2022-12-18T13:50:49;19.63;;;11.10;;
10517;SDS011;5307;42.548;22.968;2022-12-18T13:53:21;21.00;;;9.57;;
10517;SDS011;5307;42.548;22.968;2022-12-18T13:55:51;11.20;;;6.72;;
10517;SDS011;5307;42.548;22.968;2022-12-18T13:58:18;19.02;;;9.80;;
10517;SDS011;5307;42.548;22.968;2022-12-18T14:00:44;20.90;;;10.77;;
10517;SDS011;5307;42.548;22.968;2022-12-18T14:03:16;18.83;;;10.52;;
10517;SDS011;5307;42.548;22.968;2022-12-18T14:05:45;23.40;;;12.95;;
10517;SDS011;5307;42.548;22.968;2022-12-18T14:08:19;20.13;;;11.50;;
10517;SDS011;5307;42.548;22.968;2022-12-18T14:10:47;19.73;;;10.45;;
10517;SDS011;5307;42.548;22.968;2022-12-18T14:13:17;13.65;;;6.82;;
10517;SDS011;5307;42.548;22.968;2022-12-18T14:15:49;22.42;;;11.68;;
10517;SDS011;5307;42.548;22.968;2022-12-18T14:18:19;20.83;;;11.65;;
10517;SDS011;5307;42.548;22.968;2022-12-18T14:20:49;17.30;;;9.02;;
10517;SDS011;5307;42.548;22.968;2022-12-18T14:23:28;26.73;;;13.48;;
10517;SDS011;5307;42.548;22.968;2022-12-18T14:25:56;23.17;;;11.32;;
10517;SDS011;5307;42.548;22.968;2022-12-18T14:28:23;15.57;;;8.60;;
10517;SDS011;5307;42.548;22.968;2022-12-18T14:30:51;24.23;;;12.60;;
10517;SDS011;5307;42.548;22.968;2022-12-18T14:33:20;28.20;;;13.93;;
10517;SDS011;5307;42.548;22.968;2022-12-18T14:35:52;33.20;;;17.25;;
10517;SDS011;5307;42.548;22.968;2022-12-18T14:38:21;56.72;;;23.48;;
10517;SDS011;5307;42.548;22.968;2022-12-18T14:40:59;29.13;;;14.02;;
10517;SDS011;5307;42.548;22.968;2022-12-18T14:43:28;23.15;;;10.70;;
10517;SDS011;5307;42.548;22.968;2022-12-18T14:45:58;20.40;;;10.73;;
10517;SDS011;5307;42.548;22.968;2022-12-18T14:48:33;29.05;;;14.10;;
10517;SDS011;5307;42.548;22.968;2022-12-18T14:51:03;22.17;;;10.73;;
10517;SDS011;5307;42.548;22.968;2022-12-18T14:53:36;21.60;;;11.88;;
10517;SDS011;5307;42.548;22.968;2022-12-18T14:56:14;75.15;;;33.55;;
10517;SDS011;5307;42.548;22.968;2022-12-18T14:58:46;51.20;;;24.50;;
10517;SDS011;5307;42.548;22.968;2022-12-18T15:01:18;29.23;;;14.77;;
10517;SDS011;5307;42.548;22.968;2022-12-18T15:03:47;29.15;;;13.85;;
10517;SDS011;5307;42.548;22.968;2022-12-18T15:06:15;17.75;;;9.75;;